createdAt,value
2018-07-06T00:02:34.228Z,2.83
2018-07-06T00:05:13.670Z,2.53
2018-07-06T00:07:52.936Z,2.20
2018-07-06T00:10:33.012Z,2.83
2018-07-06T00:13:12.596Z,3.43
2018-07-06T00:15:51.966Z,2.00
2018-07-06T00:18:31.464Z,4.27
2018-07-06T00:21:10.993Z,3.77
2018-07-06T00:23:50.540Z,3.93
2018-07-06T00:26:29.661Z,3.20
2018-07-06T00:29:09.191Z,2.77
2018-07-06T00:31:48.601Z,3.67
2018-07-06T00:34:28.137Z,4.50
2018-07-06T00:37:07.601Z,5.07
2018-07-06T00:39:46.892Z,2.83
2018-07-06T00:42:26.330Z,3.90
2018-07-06T00:45:05.869Z,5.23
2018-07-06T00:47:45.166Z,3.40
2018-07-06T00:50:25.418Z,4.00
2018-07-06T00:53:05.581Z,3.80
2018-07-06T00:55:45.895Z,3.90
2018-07-06T00:58:25.284Z,4.97
2018-07-06T01:01:04.830Z,3.43
2018-07-06T01:03:44.407Z,4.80
2018-07-06T01:06:23.699Z,3.77
2018-07-06T01:09:03.985Z,4.73
2018-07-06T01:11:43.473Z,4.50
2018-07-06T01:14:23.044Z,5.10
2018-07-06T01:17:02.410Z,3.57
2018-07-06T01:19:41.896Z,4.60
2018-07-06T01:22:21.535Z,3.73
2018-07-06T01:25:00.953Z,4.80
2018-07-06T01:27:41.118Z,3.63
2018-07-06T01:30:20.560Z,4.20
2018-07-06T01:33:00.132Z,2.87
2018-07-06T01:35:39.474Z,4.47
2018-07-06T01:38:18.895Z,5.07
2018-07-06T01:40:58.219Z,2.90
2018-07-06T01:43:37.771Z,3.43
2018-07-06T01:46:17.429Z,4.13
2018-07-06T01:48:56.650Z,4.83
2018-07-06T01:51:36.847Z,4.03
2018-07-06T01:54:16.334Z,4.07
2018-07-06T01:56:55.828Z,3.97
2018-07-06T01:59:35.403Z,3.97
2018-07-06T02:02:14.951Z,4.30
2018-07-06T02:04:54.482Z,3.90
2018-07-06T02:07:33.963Z,3.80
2018-07-06T02:10:13.513Z,3.63
2018-07-06T02:12:53.037Z,4.00
2018-07-06T02:15:32.532Z,3.90
2018-07-06T02:18:11.786Z,3.60
2018-07-06T02:20:51.972Z,3.63
2018-07-06T02:23:31.395Z,3.43
2018-07-06T02:26:10.824Z,3.60
2018-07-06T02:28:50.325Z,3.77
2018-07-06T02:31:29.809Z,3.97
2018-07-06T02:34:09.296Z,2.97
2018-07-06T02:36:48.720Z,3.40
2018-07-06T02:39:28.152Z,3.60
2018-07-06T02:42:07.593Z,3.10
2018-07-06T02:44:46.936Z,3.87
2018-07-06T02:47:26.326Z,3.83
2018-07-06T02:50:05.792Z,4.37
2018-07-06T02:52:45.139Z,4.33
2018-07-06T02:55:24.615Z,4.80
2018-07-06T02:58:04.172Z,3.97
2018-07-06T03:00:43.636Z,4.43
2018-07-06T03:03:23.063Z,4.30
2018-07-06T03:06:02.552Z,4.03
2018-07-06T03:08:42.144Z,3.77
2018-07-06T03:11:21.475Z,4.53
2018-07-06T03:14:00.907Z,4.73
2018-07-06T03:16:40.382Z,5.23
2018-07-06T03:19:20.674Z,4.83
2018-07-06T03:22:00.137Z,6.23
2018-07-06T03:24:39.493Z,4.83
2018-07-06T03:27:18.945Z,5.10
2018-07-06T03:29:59.161Z,5.00
2018-07-06T03:32:38.547Z,4.67
2018-07-06T03:35:18.128Z,4.83
2018-07-06T03:37:57.526Z,4.33
2018-07-06T03:40:36.911Z,4.37
2018-07-06T03:43:16.429Z,3.87
2018-07-06T03:45:55.695Z,3.87
2018-07-06T03:48:35.972Z,4.97
2018-07-06T03:51:15.560Z,4.37
2018-07-06T03:53:54.860Z,6.80
2018-07-06T03:56:34.329Z,6.70
2018-07-06T03:59:13.587Z,8.83
2018-07-06T04:01:53.764Z,4.83
2018-07-06T04:04:33.241Z,6.63
2018-07-06T04:07:12.579Z,6.30
2018-07-06T04:09:52.020Z,5.73
2018-07-06T04:12:31.271Z,5.47
2018-07-06T04:15:11.611Z,4.30
2018-07-06T04:17:52.465Z,4.40
2018-07-06T04:20:31.691Z,4.50
2018-07-06T04:23:11.234Z,4.40
2018-07-06T04:25:50.676Z,5.30
2018-07-06T04:28:29.944Z,4.73
2018-07-06T04:31:09.338Z,4.87
2018-07-06T04:33:48.672Z,5.23
2018-07-06T04:36:28.031Z,6.20
2018-07-06T04:39:08.205Z,5.57
2018-07-06T04:41:47.684Z,5.87
2018-07-06T04:44:27.120Z,6.70
2018-07-06T04:47:06.412Z,5.80
2018-07-06T04:49:46.138Z,6.53
2018-07-06T04:52:25.392Z,7.73
2018-07-06T04:55:05.135Z,7.13
2018-07-06T04:57:44.657Z,7.17
2018-07-06T05:00:24.883Z,6.80
2018-07-06T05:03:04.296Z,5.80
2018-07-06T05:05:43.781Z,5.87
2018-07-06T05:08:23.266Z,7.63
2018-07-06T05:11:03.345Z,6.50
2018-07-06T05:13:43.575Z,8.98
2018-07-06T05:16:23.009Z,6.30
2018-07-06T05:19:02.263Z,7.33
2018-07-06T05:21:42.497Z,6.10
2018-07-06T05:24:21.759Z,6.57
2018-07-06T05:27:01.228Z,5.73
2018-07-06T05:29:40.683Z,5.40
2018-07-06T05:32:20.128Z,6.40
2018-07-06T05:34:59.404Z,6.93
2018-07-06T05:37:38.885Z,6.00
2018-07-06T05:40:18.424Z,5.87
2018-07-06T05:42:57.777Z,6.03
2018-07-06T05:45:37.302Z,5.97
2018-07-06T05:48:16.824Z,5.77
2018-07-06T05:50:56.043Z,5.40
2018-07-06T05:53:35.560Z,5.93
2018-07-06T05:56:15.752Z,5.80
2018-07-06T05:58:55.126Z,5.20
2018-07-06T06:01:35.441Z,5.30
2018-07-06T06:04:14.795Z,5.20
2018-07-06T06:06:54.203Z,4.70
2018-07-06T06:09:22.433Z,5.40
2018-07-06T06:11:50.776Z,4.73
2018-07-06T06:14:18.339Z,4.10
2018-07-06T06:16:45.822Z,4.77
2018-07-06T06:19:14.342Z,5.13
2018-07-06T06:21:41.844Z,5.00
2018-07-06T06:24:09.310Z,4.53
2018-07-06T06:26:36.760Z,4.73
2018-07-06T06:29:04.245Z,4.17
2018-07-06T06:31:31.808Z,4.30
2018-07-06T06:33:59.405Z,4.07
2018-07-06T06:36:26.729Z,4.20
2018-07-06T06:38:54.189Z,3.90
2018-07-06T06:41:21.745Z,4.40
2018-07-06T06:43:49.308Z,4.00
2018-07-06T06:46:16.766Z,4.00
2018-07-06T06:48:44.343Z,4.33
2018-07-06T06:51:11.805Z,3.93
2018-07-06T06:53:39.278Z,3.73
2018-07-06T06:56:06.752Z,3.83
2018-07-06T06:58:34.975Z,4.13
2018-07-06T07:01:02.509Z,3.93
2018-07-06T07:03:29.933Z,3.63
2018-07-06T07:05:57.387Z,4.03
2018-07-06T07:08:24.850Z,4.40
2018-07-06T07:10:52.325Z,4.43
2018-07-06T07:13:19.765Z,4.27
2018-07-06T07:15:47.232Z,3.90
2018-07-06T07:18:14.812Z,3.90
2018-07-06T07:20:43.038Z,3.80
2018-07-06T07:23:10.549Z,3.80
2018-07-06T07:25:38.053Z,4.57
2018-07-06T07:28:05.568Z,3.70
2018-07-06T07:30:33.036Z,4.00
2018-07-06T07:33:00.496Z,3.73
2018-07-06T07:35:27.966Z,3.80
2018-07-06T07:37:56.760Z,3.93
2018-07-06T07:40:24.224Z,3.83
2018-07-06T07:42:52.455Z,3.80
2018-07-06T07:45:19.931Z,4.63
2018-07-06T07:47:47.399Z,4.03
2018-07-06T07:50:14.874Z,3.63
2018-07-06T07:53:03.116Z,4.43
2018-07-06T07:55:30.571Z,3.70
2018-07-06T07:57:58.135Z,3.80
2018-07-06T08:00:25.755Z,3.93
2018-07-06T08:02:53.151Z,4.17
2018-07-06T08:05:20.625Z,4.50
2018-07-06T08:07:48.061Z,3.60
2018-07-06T08:10:15.512Z,3.70
2018-07-06T08:12:43.010Z,3.90
2018-07-06T08:15:10.472Z,3.97
2018-07-06T08:17:37.943Z,3.87
2018-07-06T08:20:06.517Z,3.70
2018-07-06T08:22:34.299Z,3.47
2018-07-06T08:25:01.767Z,2.97
2018-07-06T08:27:30.747Z,3.03
2018-07-06T08:29:58.191Z,3.63
2018-07-06T08:32:25.663Z,3.50
2018-07-06T08:35:05.011Z,2.90
2018-07-06T08:37:44.339Z,3.60
2018-07-06T08:40:11.820Z,3.37
2018-07-06T08:42:39.293Z,3.20
2018-07-06T08:45:07.539Z,3.07
2018-07-06T08:47:35.067Z,3.03
2018-07-06T08:50:02.536Z,2.87
2018-07-06T08:52:29.999Z,2.67
2018-07-06T08:54:57.503Z,2.97
2018-07-06T08:57:24.972Z,2.90
2018-07-06T08:59:52.421Z,2.90
2018-07-06T09:02:19.992Z,3.17
2018-07-06T09:04:47.554Z,2.97
2018-07-06T09:07:14.915Z,2.80
2018-07-06T09:09:42.471Z,2.87
2018-07-06T09:12:09.946Z,2.97
2018-07-06T09:14:37.502Z,2.87
2018-07-06T09:17:04.960Z,3.10
2018-07-06T09:19:32.606Z,2.30
2018-07-06T09:22:00.000Z,2.90
2018-07-06T09:24:27.547Z,2.90
2018-07-06T09:26:55.074Z,2.47
2018-07-06T09:29:22.540Z,2.97
2018-07-06T09:31:49.999Z,2.70
2018-07-06T09:34:17.458Z,2.80
2018-07-06T09:36:44.928Z,3.50
2018-07-06T09:39:12.385Z,3.27
2018-07-06T09:41:39.839Z,2.80
2018-07-06T09:44:07.412Z,2.80
2018-07-06T09:46:34.878Z,2.73
2018-07-06T09:49:02.335Z,2.40
2018-07-06T09:51:29.799Z,2.70
2018-07-06T09:53:57.338Z,2.67
2018-07-06T09:56:25.579Z,2.37
2018-07-06T09:58:53.134Z,2.20
2018-07-06T10:01:20.578Z,2.27
2018-07-06T10:03:48.043Z,2.13
2018-07-06T10:06:15.490Z,1.93
2018-07-06T10:08:43.059Z,2.07
2018-07-06T10:11:10.568Z,2.30
2018-07-06T10:13:38.023Z,2.27
2018-07-06T10:16:05.473Z,2.40
2018-07-06T10:18:32.930Z,2.03
2018-07-06T10:21:00.611Z,1.93
2018-07-06T10:23:28.071Z,2.07
2018-07-06T10:25:55.531Z,2.10
2018-07-06T10:28:23.008Z,2.37
2018-07-06T10:30:50.571Z,1.87
2018-07-06T10:33:18.190Z,1.90
2018-07-06T10:35:45.597Z,1.50
2018-07-06T10:38:13.155Z,1.83
2018-07-06T10:40:40.605Z,1.90
2018-07-06T10:43:08.063Z,1.93
2018-07-06T10:45:35.537Z,1.70
2018-07-06T10:48:03.005Z,2.20
2018-07-06T10:50:30.563Z,1.57
2018-07-06T10:52:58.124Z,1.80
2018-07-06T10:55:25.587Z,2.00
2018-07-06T10:57:53.173Z,1.97
2018-07-06T11:00:21.435Z,1.80
2018-07-06T11:02:48.912Z,2.07
2018-07-06T11:05:17.176Z,2.10
2018-07-06T11:07:44.627Z,1.90
2018-07-06T11:10:12.200Z,2.37
2018-07-06T11:12:39.660Z,2.00
2018-07-06T11:15:07.117Z,1.63
2018-07-06T11:17:34.595Z,2.50
2018-07-06T11:20:02.047Z,2.00
2018-07-06T11:22:29.507Z,2.10
2018-07-06T11:24:56.983Z,1.90
2018-07-06T11:27:24.543Z,2.27
2018-07-06T11:29:51.993Z,1.70
2018-07-06T11:32:19.453Z,2.17
2018-07-06T11:34:46.907Z,2.33
2018-07-06T11:37:14.390Z,2.20
2018-07-06T11:39:42.225Z,1.97
2018-07-06T11:42:09.707Z,1.97
2018-07-06T11:44:37.190Z,1.60
2018-07-06T11:47:04.700Z,1.80
2018-07-06T11:49:32.160Z,2.07
2018-07-06T11:51:59.621Z,2.47
2018-07-06T11:54:27.091Z,1.77
2018-07-06T11:56:54.601Z,2.40
2018-07-06T11:59:22.068Z,1.80
2018-07-06T12:01:49.994Z,1.67
2018-07-06T12:04:17.536Z,2.20
2018-07-06T12:06:45.060Z,1.90
2018-07-06T12:09:12.515Z,1.77
2018-07-06T12:11:39.964Z,1.87
2018-07-06T12:14:07.447Z,1.67
2018-07-06T12:16:35.380Z,2.27
2018-07-06T12:19:02.840Z,1.73
2018-07-06T12:21:30.383Z,1.90
2018-07-06T12:23:57.802Z,1.70
2018-07-06T12:26:25.261Z,1.70
2018-07-06T12:28:52.712Z,1.87
2018-07-06T12:31:20.175Z,1.77
2018-07-06T12:33:47.645Z,1.60
2018-07-06T12:36:15.117Z,2.10
2018-07-06T12:38:42.584Z,1.50
2018-07-06T12:41:10.156Z,1.87
2018-07-06T12:43:37.594Z,1.50
2018-07-06T12:46:05.075Z,1.70
2018-07-06T12:48:32.531Z,1.63
2018-07-06T12:51:00.518Z,1.70
2018-07-06T12:53:28.781Z,1.60
2018-07-06T12:55:56.352Z,1.80
2018-07-06T12:58:23.990Z,1.70
2018-07-06T13:00:51.369Z,2.10
2018-07-06T13:03:18.837Z,2.17
2018-07-06T13:05:46.293Z,1.90
2018-07-06T13:08:13.938Z,1.70
2018-07-06T13:10:41.377Z,2.63
2018-07-06T13:13:08.848Z,2.00
2018-07-06T13:15:36.364Z,1.90
2018-07-06T13:18:03.816Z,1.70
2018-07-06T13:20:31.266Z,2.00
2018-07-06T13:22:58.745Z,1.67
2018-07-06T13:25:26.194Z,1.60
2018-07-06T13:27:53.653Z,1.60
2018-07-06T13:30:21.105Z,1.73
2018-07-06T13:32:48.596Z,2.00
2018-07-06T13:35:16.048Z,1.77
2018-07-06T13:37:43.506Z,2.00
2018-07-06T13:40:10.992Z,1.93
2018-07-06T13:42:39.208Z,1.90
2018-07-06T13:45:06.707Z,1.70
2018-07-06T13:47:34.159Z,1.67
2018-07-06T13:50:01.645Z,1.63
2018-07-06T13:52:29.095Z,1.77
2018-07-06T13:54:56.624Z,1.70
2018-07-06T13:57:24.090Z,1.80
2018-07-06T13:59:51.542Z,1.60
2018-07-06T14:02:19.004Z,1.90
2018-07-06T14:04:46.511Z,1.63
2018-07-06T14:07:13.991Z,1.60
2018-07-06T14:09:42.209Z,1.67
2018-07-06T14:12:09.890Z,1.93
2018-07-06T14:14:37.354Z,1.80
2018-07-06T14:17:04.808Z,2.17
2018-07-06T14:19:32.282Z,1.93
2018-07-06T14:21:59.735Z,2.00
2018-07-06T14:24:27.232Z,1.53
2018-07-06T14:26:54.706Z,1.90
2018-07-06T14:29:22.163Z,2.20
2018-07-06T14:31:49.625Z,1.87
2018-07-06T14:34:17.183Z,2.00
2018-07-06T14:36:44.644Z,1.40
2018-07-06T14:39:12.114Z,1.77
2018-07-06T14:41:39.564Z,1.90
2018-07-06T14:44:07.030Z,2.00
2018-07-06T14:46:34.500Z,1.70
2018-07-06T14:49:02.956Z,1.70
2018-07-06T14:51:30.427Z,1.70
2018-07-06T14:53:57.910Z,1.93
2018-07-06T14:56:25.353Z,2.20
2018-07-06T14:58:52.820Z,2.10
2018-07-06T15:01:20.290Z,1.90
2018-07-06T15:03:47.753Z,1.60
2018-07-06T15:06:15.206Z,1.67
2018-07-06T15:08:42.731Z,1.83
2018-07-06T15:11:10.932Z,1.70
2018-07-06T15:13:38.429Z,1.80
2018-07-06T15:16:05.901Z,1.60
2018-07-06T15:18:34.127Z,1.70
2018-07-06T15:21:01.580Z,2.17
2018-07-06T15:23:29.029Z,1.70
2018-07-06T15:25:57.264Z,1.80
2018-07-06T15:28:24.839Z,2.10
2018-07-06T15:30:52.283Z,1.70
2018-07-06T15:33:19.742Z,1.83
2018-07-06T15:35:47.202Z,1.70
2018-07-06T15:38:14.667Z,1.80
2018-07-06T15:40:42.108Z,1.87
2018-07-06T15:43:09.612Z,1.73
2018-07-06T15:45:38.588Z,1.97
2018-07-06T15:48:06.049Z,1.90
2018-07-06T15:50:33.513Z,1.77
2018-07-06T15:53:02.102Z,1.77
2018-07-06T15:55:29.681Z,1.90
2018-07-06T15:57:58.640Z,1.70
2018-07-06T16:00:26.096Z,1.70
2018-07-06T16:02:53.559Z,2.10
2018-07-06T16:05:21.025Z,1.90
2018-07-06T16:07:49.918Z,1.90
2018-07-06T16:10:17.371Z,1.70
2018-07-06T16:12:44.828Z,2.07
2018-07-06T16:15:12.275Z,1.73
2018-07-06T16:17:40.507Z,1.93
2018-07-06T16:20:07.956Z,1.90
2018-07-06T16:22:35.423Z,1.93
2018-07-06T16:25:02.908Z,2.00
2018-07-06T16:27:30.473Z,2.00
2018-07-06T16:29:57.944Z,1.60
2018-07-06T16:32:25.422Z,1.87
2018-07-06T16:34:53.664Z,2.17
2018-07-06T16:37:21.127Z,2.10
2018-07-06T16:39:48.603Z,2.20
2018-07-06T16:42:16.079Z,2.03
2018-07-06T16:44:43.534Z,2.00
2018-07-06T16:47:11.015Z,1.93
2018-07-06T16:49:38.566Z,2.20
2018-07-06T16:52:06.876Z,2.00
2018-07-06T16:54:34.326Z,2.40
2018-07-06T16:57:02.547Z,1.90
2018-07-06T16:59:30.016Z,1.80
2018-07-06T17:01:57.489Z,1.90
2018-07-06T17:04:26.039Z,1.93
2018-07-06T17:06:53.516Z,2.27
2018-07-06T17:09:20.982Z,2.10
2018-07-06T17:11:48.491Z,2.03
2018-07-06T17:14:15.973Z,1.90
2018-07-06T17:16:43.500Z,2.30
2018-07-06T17:19:11.065Z,1.90
2018-07-06T17:21:38.521Z,2.10
2018-07-06T17:24:06.119Z,2.03
2018-07-06T17:26:34.911Z,1.90
2018-07-06T17:29:02.448Z,2.20
2018-07-06T17:31:29.932Z,1.60
2018-07-06T17:33:57.391Z,1.90
2018-07-06T17:36:24.952Z,1.67
2018-07-06T17:38:53.174Z,2.03
2018-07-06T17:41:20.641Z,1.90
2018-07-06T17:43:48.862Z,1.90
2018-07-06T17:46:16.307Z,2.20
2018-07-06T17:48:43.776Z,2.20
2018-07-06T17:51:11.233Z,2.10
2018-07-06T17:53:38.690Z,1.90
2018-07-06T17:56:06.148Z,2.40
2018-07-06T17:58:33.618Z,2.30
2018-07-06T18:01:01.091Z,2.23
2018-07-06T18:03:29.435Z,2.10
2018-07-06T18:05:56.896Z,1.90
2018-07-06T18:08:24.358Z,1.77
2018-07-06T18:10:51.824Z,1.70
2018-07-06T18:13:19.282Z,1.43
2018-07-06T18:15:46.762Z,1.53
2018-07-06T18:18:14.257Z,1.70
2018-07-06T18:20:41.704Z,1.40
2018-07-06T18:23:09.383Z,1.60
2018-07-06T18:25:36.782Z,1.43
2018-07-06T18:28:05.005Z,1.73
2018-07-06T18:30:32.459Z,1.63
2018-07-06T18:32:59.939Z,1.50
2018-07-06T18:35:27.409Z,1.80
2018-07-06T18:37:54.877Z,1.30
2018-07-06T18:40:23.852Z,1.60
2018-07-06T18:42:51.327Z,1.60
2018-07-06T18:45:18.798Z,1.50
2018-07-06T18:47:46.248Z,1.47
2018-07-06T18:50:13.720Z,1.60
2018-07-06T18:52:41.292Z,1.27
2018-07-06T18:55:10.268Z,1.40
2018-07-06T18:57:37.835Z,1.33
2018-07-06T19:00:05.411Z,1.40
2018-07-06T19:02:32.925Z,1.13
2018-07-06T19:05:00.390Z,1.00
2018-07-06T19:07:27.859Z,1.23
2018-07-06T19:09:55.330Z,1.20
2018-07-06T19:12:22.792Z,1.10
2018-07-06T19:14:50.284Z,1.30
2018-07-06T19:17:17.725Z,1.13
2018-07-06T19:19:45.295Z,1.40
2018-07-06T19:22:13.244Z,1.37
2018-07-06T19:24:40.733Z,1.80
2018-07-06T19:27:08.305Z,1.40
2018-07-06T19:29:35.871Z,1.50
2018-07-06T19:32:03.339Z,1.37
2018-07-06T19:34:31.586Z,1.30
2018-07-06T19:36:59.053Z,1.50
2018-07-06T19:39:26.532Z,1.10
2018-07-06T19:41:54.004Z,1.30
2018-07-06T19:44:21.563Z,1.23
2018-07-06T19:46:49.030Z,1.30
2018-07-06T19:49:16.494Z,0.93
2018-07-06T19:51:45.532Z,1.10
2018-07-06T19:54:13.057Z,1.23
2018-07-06T19:56:40.568Z,1.00
2018-07-06T19:59:08.107Z,1.20
2018-07-06T20:01:36.401Z,1.00
2018-07-06T20:04:03.807Z,1.17
2018-07-06T20:06:31.298Z,1.20
2018-07-06T20:08:59.509Z,1.20
2018-07-06T20:11:27.020Z,1.30
2018-07-06T20:13:54.476Z,1.20
2018-07-06T20:16:21.945Z,1.00
2018-07-06T20:18:49.515Z,1.10
2018-07-06T20:21:17.735Z,1.00
2018-07-06T20:23:45.252Z,0.90
2018-07-06T20:26:12.720Z,1.00
2018-07-06T20:28:40.168Z,1.03
2018-07-06T20:31:07.631Z,1.13
2018-07-06T20:33:35.102Z,1.30
2018-07-06T20:36:02.551Z,1.17
2018-07-06T20:38:30.126Z,0.90
2018-07-06T20:40:57.582Z,1.10
2018-07-06T20:43:25.353Z,0.97
2018-07-06T20:45:52.780Z,1.20
2018-07-06T20:48:20.276Z,1.10
2018-07-06T20:50:47.736Z,1.23
2018-07-06T20:53:15.212Z,1.37
2018-07-06T20:55:42.676Z,1.20
2018-07-06T20:58:10.910Z,1.37
2018-07-06T21:00:38.365Z,1.00
2018-07-06T21:03:05.849Z,1.20
2018-07-06T21:05:33.318Z,1.07
2018-07-06T21:08:00.794Z,1.10
2018-07-06T21:10:28.293Z,0.90
2018-07-06T21:12:56.508Z,1.10
2018-07-06T21:15:23.971Z,1.10
2018-07-06T21:17:52.140Z,1.40
2018-07-06T21:20:19.612Z,1.20
2018-07-06T21:22:47.064Z,0.90
2018-07-06T21:25:14.553Z,0.70
2018-07-06T21:27:42.136Z,0.93
2018-07-06T21:30:10.400Z,1.10
2018-07-06T21:32:37.971Z,1.00
2018-07-06T21:35:05.497Z,0.83
2018-07-06T21:37:32.955Z,1.30
2018-07-06T21:40:00.415Z,1.50
2018-07-06T21:42:27.884Z,0.80
2018-07-06T21:44:55.367Z,1.00
2018-07-06T21:47:22.819Z,1.27
2018-07-06T21:49:50.295Z,0.80
2018-07-06T21:52:17.780Z,1.00
2018-07-06T21:54:45.619Z,0.80
2018-07-06T21:57:13.082Z,0.80
2018-07-06T21:59:40.539Z,0.90
2018-07-06T22:02:08.011Z,0.60
2018-07-06T22:04:35.482Z,0.93
2018-07-06T22:07:02.952Z,1.10
2018-07-06T22:09:30.513Z,0.77
2018-07-06T22:11:57.987Z,0.70
2018-07-06T22:14:25.555Z,0.90
2018-07-06T22:16:53.010Z,0.80
2018-07-06T22:19:20.570Z,0.80
2018-07-06T22:21:48.181Z,0.90
2018-07-06T22:24:15.696Z,1.07
2018-07-06T22:26:43.283Z,0.90
2018-07-06T22:29:10.741Z,0.80
2018-07-06T22:31:38.209Z,1.43
2018-07-06T22:34:05.674Z,0.77
2018-07-06T22:36:33.909Z,0.83
2018-07-06T22:39:01.377Z,0.90
2018-07-06T22:41:28.858Z,1.40
2018-07-06T22:43:56.319Z,0.70
2018-07-06T22:46:23.782Z,0.90
2018-07-06T22:48:52.048Z,0.97
2018-07-06T22:51:19.614Z,0.80
2018-07-06T22:53:47.193Z,1.10
2018-07-06T22:56:14.660Z,0.93
2018-07-06T22:58:42.892Z,1.03
2018-07-06T23:01:10.365Z,1.43
2018-07-06T23:03:37.837Z,0.80
2018-07-06T23:06:05.300Z,0.70
2018-07-06T23:08:32.880Z,0.80
2018-07-06T23:11:00.336Z,0.87
2018-07-06T23:13:28.187Z,1.07
2018-07-06T23:15:55.635Z,0.77
2018-07-06T23:18:23.130Z,0.73
2018-07-06T23:20:50.703Z,1.13
2018-07-06T23:23:18.938Z,0.70
2018-07-06T23:25:46.406Z,0.77
2018-07-06T23:28:13.897Z,0.80
2018-07-06T23:30:41.373Z,0.90
2018-07-06T23:33:08.829Z,0.70
2018-07-06T23:35:36.396Z,0.80
2018-07-06T23:38:05.367Z,1.00
2018-07-06T23:40:32.855Z,0.90
2018-07-06T23:43:01.081Z,0.60
2018-07-06T23:45:28.583Z,0.70
2018-07-06T23:47:56.156Z,0.93
2018-07-06T23:50:23.615Z,0.70
2018-07-06T23:52:51.134Z,0.90
2018-07-06T23:55:18.599Z,0.97
2018-07-06T23:57:46.065Z,1.00
